Time;durP1;ratioP1;P1;durP2;ratioP2;P2;SDS_P1;SDS_P2;PMS_P1;PMS_P2;Temp;Humidity;BMP_temperature;BMP_pressure;BME280_temperature;BME280_humidity;BME280_pressure;Samples;Min_cycle;Max_cycle;Signal;HPM_P1;HPM_P2
2022/03/09 00:00:06;;;;;;;2.53;0.60;;;;;;;0.67;36.82;102337.72;4975568;28;20081;-77
2022/03/09 00:02:31;;;;;;;2.92;0.75;;;;;;;0.62;36.85;102341.88;4974768;28;20761;-79
2022/03/09 00:04:57;;;;;;;3.67;0.90;;;;;;;0.47;37.09;102339.78;4960027;28;20122;-79
2022/03/09 00:07:22;;;;;;;2.92;1.13;;;;;;;0.31;37.51;102334.22;4978638;28;20518;-76
2022/03/09 00:09:48;;;;;;;1.58;0.93;;;;;;;0.26;37.52;102331.53;4981250;28;20030;-79
2022/03/09 00:12:13;;;;;;;8.05;0.88;;;;;;;0.27;37.06;102343.53;4979661;28;20096;-79
2022/03/09 00:14:41;;;;;;;2.42;1.13;;;;;;;0.24;37.57;102346.91;4973704;28;20030;-78
2022/03/09 00:17:06;;;;;;;3.08;0.60;;;;;;;0.24;37.63;102344.34;4962857;28;20488;-78
2022/03/09 00:19:32;;;;;;;2.65;0.93;;;;;;;0.17;38.10;102345.00;4978623;28;20030;-79
2022/03/09 00:21:58;;;;;;;2.88;0.50;;;;;;;0.15;37.92;102344.09;4976724;28;20730;-79
2022/03/09 00:24:23;;;;;;;1.70;0.75;;;;;;;0.31;37.59;102347.94;4974754;28;20053;-78
2022/03/09 00:26:49;;;;;;;4.40;1.15;;;;;;;0.17;37.65;102345.00;4963483;28;20031;-78
2022/03/09 00:29:15;;;;;;;1.92;0.70;;;;;;;0.11;38.13;102352.56;4961898;28;20109;-77
2022/03/09 00:31:40;;;;;;;2.58;0.77;;;;;;;0.06;38.12;102349.00;4979254;28;20038;-79
2022/03/09 00:34:06;;;;;;;1.75;0.75;;;;;;;0.10;38.06;102357.63;4962078;28;20038;-78
2022/03/09 00:36:32;;;;;;;3.72;0.70;;;;;;;0.03;38.14;102351.47;4969645;28;20419;-78
2022/03/09 00:38:57;;;;;;;3.33;1.00;;;;;;;-0.12;38.51;102344.22;4959289;28;20072;-78
2022/03/09 00:41:23;;;;;;;1.80;0.65;;;;;;;-0.19;38.49;102345.75;4965264;28;20109;-78
2022/03/09 00:43:48;;;;;;;2.15;0.63;;;;;;;-0.36;39.24;102340.09;4977482;28;20088;-79
2022/03/09 00:46:14;;;;;;;2.15;0.75;;;;;;;-0.25;38.97;102345.56;4962486;28;20038;-78
2022/03/09 00:48:39;;;;;;;4.28;0.88;;;;;;;-0.27;38.92;102336.94;4972250;28;20065;-78
2022/03/09 00:51:06;;;;;;;2.22;0.80;;;;;;;-0.29;38.86;102343.72;4979918;28;20041;-77
2022/03/09 00:53:32;;;;;;;3.53;1.67;;;;;;;-0.40;38.98;102339.97;4974851;28;20041;-78
2022/03/09 00:55:58;;;;;;;3.53;0.80;;;;;;;-0.41;38.92;102340.81;4976107;28;20082;-78
2022/03/09 00:58:23;;;;;;;1.88;0.70;;;;;;;-0.48;39.47;102336.31;4964981;28;20503;-78
2022/03/09 01:00:49;;;;;;;1.85;0.73;;;;;;;-0.50;39.18;102332.81;4974784;28;20094;-79
2022/03/09 01:03:15;;;;;;;1.90;0.98;;;;;;;-0.49;38.94;102338.00;4989989;28;20129;-79
2022/03/09 01:05:41;;;;;;;1.85;0.80;;;;;;;-0.50;38.71;102343.09;4988807;28;20034;-78
2022/03/09 01:08:07;;;;;;;2.05;0.85;;;;;;;-0.48;38.58;102341.44;4980297;28;20042;-77
2022/03/09 01:10:33;;;;;;;1.55;0.70;;;;;;;-0.72;39.25;102334.75;4961863;28;20102;-79
2022/03/09 01:12:59;;;;;;;3.58;1.15;;;;;;;-0.83;40.37;102341.25;4980443;28;20038;-77
2022/03/09 01:15:25;;;;;;;2.33;1.20;;;;;;;-0.71;40.12;102338.19;4991548;28;20034;-78
2022/03/09 01:17:51;;;;;;;2.70;1.00;;;;;;;-0.64;39.83;102338.44;4975351;28;20081;-78
2022/03/09 01:20:17;;;;;;;2.67;1.00;;;;;;;-0.65;39.84;102339.25;4975580;28;20065;-78
2022/03/09 01:22:42;;;;;;;2.80;1.35;;;;;;;-0.65;39.57;102339.25;4972074;28;20124;-79
2022/03/09 01:25:09;;;;;;;2.30;0.85;;;;;;;-0.66;39.57;102334.94;4963899;28;20042;-79
2022/03/09 01:27:36;;;;;;;1.15;0.70;;;;;;;-0.68;39.56;102333.13;4986363;28;20053;-79
2022/03/09 01:30:02;;;;;;;2.65;0.85;;;;;;;-0.72;40.09;102349.31;4991337;28;20030;-78
2022/03/09 01:32:28;;;;;;;3.28;0.90;;;;;;;-0.65;40.03;102330.69;4960195;28;20034;-78
2022/03/09 01:34:54;;;;;;;3.00;0.95;;;;;;;-0.54;39.72;102337.00;4980398;28;20033;-78
2022/03/09 01:37:19;;;;;;;3.10;1.00;;;;;;;-0.51;39.35;102336.22;4962282;28;20666;-77
2022/03/09 01:39:45;;;;;;;2.17;0.80;;;;;;;-0.50;39.51;102343.97;4962991;28;20488;-79
2022/03/09 01:42:10;;;;;;;2.78;1.20;;;;;;;-0.59;39.63;102339.44;4977550;28;20115;-77
2022/03/09 01:44:36;;;;;;;3.70;1.15;;;;;;;-0.63;39.78;102344.44;4973592;28;20117;-79
2022/03/09 01:47:02;;;;;;;2.35;0.80;;;;;;;-0.53;39.41;102337.88;4977855;28;20040;-79
2022/03/09 01:49:27;;;;;;;2.67;1.10;;;;;;;-0.45;39.11;102341.53;4963814;28;20415;-77
2022/03/09 01:51:57;;;;;;;2.42;1.17;;;;;;;-0.42;38.68;102336.47;4979024;28;20034;-79
2022/03/09 01:54:24;;;;;;;1.95;0.60;;;;;;;-0.46;39.00;102340.69;4957271;28;20056;-78
2022/03/09 01:56:49;;;;;;;6.97;0.85;;;;;;;-0.47;38.79;102344.06;4973885;28;20095;-78
2022/03/09 01:59:16;;;;;;;3.03;0.90;;;;;;;-0.44;38.94;102340.72;4959811;28;20042;-79
2022/03/09 02:01:44;;;;;;;3.13;1.23;;;;;;;-0.45;39.18;102346.69;4977995;28;20026;-78
2022/03/09 02:04:09;;;;;;;2.03;1.15;;;;;;;-0.37;38.62;102342.63;4962058;28;20085;-78
2022/03/09 02:06:37;;;;;;;3.42;0.90;;;;;;;-0.44;38.66;102344.13;4963087;28;20081;-76
2022/03/09 02:11:50;;;;;;;4.05;0.90;;;;;;;-0.58;39.29;102340.31;4970795;28;20026;-79
2022/03/09 02:14:27;;;;;;;2.50;0.75;;;;;;;-0.60;38.96;102340.25;4977280;28;20749;-78
2022/03/09 02:16:52;;;;;;;3.10;0.93;;;;;;;-0.73;39.78;102345.84;4958991;28;20066;-78
2022/03/09 02:19:18;;;;;;;3.80;1.13;;;;;;;-0.74;39.73;102338.97;4978418;28;20108;-81
2022/03/09 02:21:45;;;;;;;2.60;1.33;;;;;;;-0.71;39.68;102341.63;4979079;28;20030;-78
2022/03/09 02:24:11;;;;;;;8.43;1.75;;;;;;;-0.62;39.25;102341.03;4971449;28;20043;-77
2022/03/09 02:26:37;;;;;;;3.17;0.90;;;;;;;-0.66;39.39;102337.53;4979520;28;20503;-80
2022/03/09 02:29:03;;;;;;;3.03;1.38;;;;;;;-0.61;39.39;102335.09;4974942;28;20048;-79
2022/03/09 02:31:28;;;;;;;3.75;1.20;;;;;;;-0.66;39.95;102337.53;4962645;28;20216;-78
2022/03/09 02:33:54;;;;;;;3.65;1.42;;;;;;;-0.67;39.41;102335.75;4961649;28;20062;-78
2022/03/09 02:36:20;;;;;;;1.45;0.63;;;;;;;-0.78;39.56;102343.13;4962998;28;20037;-78
2022/03/09 02:38:46;;;;;;;2.40;1.10;;;;;;;-0.92;39.71;102338.41;4976355;28;20054;-78
2022/03/09 02:41:12;;;;;;;3.63;1.65;;;;;;;-1.00;39.93;102336.47;4964053;28;20057;-79
2022/03/09 02:43:37;;;;;;;4.40;0.80;;;;;;;-0.98;40.41;102332.25;4956387;28;20321;-77
2022/03/09 02:46:03;;;;;;;2.58;1.13;;;;;;;-0.91;39.99;102335.00;4974379;28;20068;-78
2022/03/09 02:48:28;;;;;;;4.25;1.58;;;;;;;-0.97;40.05;102341.72;4962456;28;20053;-78
2022/03/09 02:50:54;;;;;;;2.20;0.90;;;;;;;-0.98;40.22;102345.06;4961359;28;20064;-78
2022/03/09 02:53:19;;;;;;;2.67;0.70;;;;;;;-1.03;40.61;102353.47;4973836;28;20117;-78
2022/03/09 02:55:45;;;;;;;4.63;1.48;;;;;;;-1.01;40.33;102347.56;4962427;28;20528;-77
2022/03/09 02:58:10;;;;;;;3.85;1.05;;;;;;;-1.05;40.56;102355.97;4971797;28;20047;-78
2022/03/09 03:00:36;;;;;;;3.40;1.52;;;;;;;-0.85;40.01;102351.47;4961551;28;20120;-78
2022/03/09 03:03:02;;;;;;;2.00;1.05;;;;;;;-1.03;40.54;102362.03;4961292;28;20173;-79
2022/03/09 03:05:27;;;;;;;1.17;0.50;;;;;;;-1.01;40.49;102349.25;4976525;28;20065;-78
2022/03/09 03:07:53;;;;;;;5.28;1.55;;;;;;;-0.93;40.48;102357.19;4962179;28;20037;-78
2022/03/09 03:10:19;;;;;;;2.70;1.05;;;;;;;-0.97;40.40;102349.41;4972851;28;20034;-78
2022/03/09 03:12:45;;;;;;;2.80;1.50;;;;;;;-1.03;40.47;102343.22;4961697;28;20046;-78
2022/03/09 03:15:10;;;;;;;4.18;1.27;;;;;;;-1.02;40.62;102348.41;4957356;28;20097;-78
2022/03/09 03:17:37;;;;;;;2.35;1.27;;;;;;;-1.09;41.09;102350.66;4975322;28;20113;-78
2022/03/09 03:20:04;;;;;;;3.88;1.45;;;;;;;-1.13;41.03;102353.94;4966099;28;20093;-78
2022/03/09 03:22:30;;;;;;;3.72;1.27;;;;;;;-1.15;40.94;102356.50;4977898;28;20058;-79
2022/03/09 03:24:55;;;;;;;2.95;1.05;;;;;;;-1.24;41.27;102356.16;4976349;28;20456;-77
2022/03/09 03:27:20;;;;;;;3.10;1.33;;;;;;;-1.21;41.04;102358.84;4966091;28;20089;-79
2022/03/09 03:29:46;;;;;;;3.85;1.33;;;;;;;-1.17;41.12;102353.00;4966432;28;20044;-78
2022/03/09 03:32:11;;;;;;;3.03;1.65;;;;;;;-1.21;41.35;102353.72;4977847;28;20901;-78
2022/03/09 03:34:37;;;;;;;2.97;1.35;;;;;;;-1.23;41.58;102355.34;4983781;28;20058;-79
2022/03/09 03:37:03;;;;;;;4.05;1.85;;;;;;;-1.28;41.70;102349.22;4976980;28;20039;-78
2022/03/09 03:39:28;;;;;;;3.53;2.00;;;;;;;-1.25;41.89;102357.88;4966973;28;20132;-79
2022/03/09 03:41:54;;;;;;;5.50;1.63;;;;;;;-1.33;42.19;102351.63;4982139;28;20085;-79
2022/03/09 03:44:19;;;;;;;2.95;1.75;;;;;;;-1.25;42.20;102355.31;4975622;28;20120;-79
2022/03/09 03:46:45;;;;;;;3.17;1.17;;;;;;;-1.18;42.15;102351.25;4980804;28;20035;-78
2022/03/09 03:49:10;;;;;;;9.30;2.08;;;;;;;-1.18;42.00;102340.97;4963256;28;20113;-79
2022/03/09 03:51:36;;;;;;;2.40;1.35;;;;;;;-1.27;42.39;102345.81;4965816;28;20111;-78
2022/03/09 03:54:02;;;;;;;4.45;2.17;;;;;;;-1.26;42.32;102342.44;4966015;28;20040;-79
2022/03/09 03:56:27;;;;;;;9.50;1.88;;;;;;;-1.35;42.65;102340.44;4977210;28;20034;-79
2022/03/09 03:58:52;;;;;;;3.97;1.13;;;;;;;-1.28;42.77;102331.25;4964659;28;20041;-79
2022/03/09 04:01:18;;;;;;;4.45;1.48;;;;;;;-1.21;42.10;102333.19;4979807;28;20038;-78
2022/03/09 04:03:43;;;;;;;3.17;1.48;;;;;;;-1.23;42.24;102332.28;4975530;28;20094;-79
2022/03/09 04:06:09;;;;;;;5.20;1.13;;;;;;;-1.13;42.06;102329.16;4977830;28;20508;-78
2022/03/09 04:08:34;;;;;;;5.80;2.15;;;;;;;-1.15;42.06;102333.41;4978887;28;20902;-78
2022/03/09 04:11:00;;;;;;;4.80;1.17;;;;;;;-1.07;41.38;102347.31;4978617;28;20842;-79
2022/03/09 04:13:25;;;;;;;4.28;1.52;;;;;;;-1.11;41.99;102344.63;4965312;28;20583;-78
2022/03/09 04:15:51;;;;;;;3.38;1.40;;;;;;;-1.10;41.60;102349.81;4976373;28;20084;-79
2022/03/09 04:18:16;;;;;;;3.08;1.73;;;;;;;-1.09;41.63;102353.22;4975339;28;20046;-79
2022/03/09 04:20:42;;;;;;;6.65;1.90;;;;;;;-1.20;41.92;102352.88;4960574;28;20040;-78
2022/03/09 04:23:09;;;;;;;2.67;1.45;;;;;;;-1.03;41.10;102356.91;4978416;28;20141;-78
2022/03/09 04:25:37;;;;;;;5.50;1.50;;;;;;;-1.09;41.22;102356.66;4959640;28;20034;-79
2022/03/09 04:28:03;;;;;;;2.88;1.50;;;;;;;-1.10;41.28;102366.91;4981778;28;20098;-78
2022/03/09 04:30:29;;;;;;;3.53;1.70;;;;;;;-1.16;41.50;102365.00;4985100;28;20128;-79
2022/03/09 04:32:54;;;;;;;4.45;1.70;;;;;;;-1.14;41.16;102357.34;4963804;28;20412;-79
2022/03/09 04:35:20;;;;;;;2.53;1.08;;;;;;;-1.20;41.13;102355.44;4966435;28;20140;-79
2022/03/09 04:37:46;;;;;;;3.22;1.55;;;;;;;-1.24;41.13;102349.38;4980736;28;20050;-78
2022/03/09 04:40:12;;;;;;;5.68;2.70;;;;;;;-1.27;41.20;102349.25;4964929;28;20034;-78
2022/03/09 04:42:37;;;;;;;5.53;1.40;;;;;;;-1.27;41.33;102346.69;4973720;28;20042;-79
2022/03/09 04:45:04;;;;;;;3.95;1.23;;;;;;;-1.27;41.26;102350.94;4960798;28;20030;-78
2022/03/09 04:47:30;;;;;;;2.58;1.10;;;;;;;-1.29;41.34;102353.44;4975762;28;20403;-78
2022/03/09 04:49:55;;;;;;;7.30;1.17;;;;;;;-1.22;40.83;102351.97;4977934;28;20318;-78
2022/03/09 04:52:21;;;;;;;6.13;1.80;;;;;;;-1.24;40.84;102351.03;4974108;28;20512;-79
2022/03/09 04:54:47;;;;;;;5.68;1.75;;;;;;;-1.23;40.59;102345.97;4964407;28;20037;-78
2022/03/09 04:57:12;;;;;;;4.95;1.33;;;;;;;-1.31;40.88;102344.81;4981464;28;20501;-78
2022/03/09 04:59:38;;;;;;;4.68;1.27;;;;;;;-1.32;41.05;102348.22;4983154;28;20129;-78
2022/03/09 05:02:03;;;;;;;6.45;1.40;;;;;;;-1.41;41.02;102343.66;4958932;28;20125;-78
2022/03/09 05:04:29;;;;;;;4.85;1.77;;;;;;;-1.46;41.17;102342.66;4965774;28;20074;-80
2022/03/09 05:06:55;;;;;;;3.72;1.92;;;;;;;-1.49;41.22;102344.22;4973769;28;20467;-78
2022/03/09 05:09:21;;;;;;;3.65;1.33;;;;;;;-1.68;41.77;102348.72;4981156;28;20137;-79
2022/03/09 05:11:46;;;;;;;7.28;1.80;;;;;;;-1.60;41.26;102343.84;4959191;28;20076;-78
2022/03/09 05:14:12;;;;;;;3.28;1.30;;;;;;;-1.64;41.37;102352.28;4963853;28;20046;-78
2022/03/09 05:16:39;;;;;;;3.20;1.63;;;;;;;-1.70;41.23;102352.06;4972787;28;22897;-79
2022/03/09 05:19:05;;;;;;;2.47;1.30;;;;;;;-1.86;41.73;102346.41;4976442;28;20695;-80
2022/03/09 05:21:30;;;;;;;3.22;1.27;;;;;;;-1.96;41.82;102349.44;4961557;28;20046;-79
2022/03/09 05:23:56;;;;;;;2.60;1.23;;;;;;;-1.98;41.98;102348.53;4974261;28;20424;-79
2022/03/09 05:26:21;;;;;;;3.03;1.80;;;;;;;-2.05;42.23;102351.69;4992179;28;20031;-80
2022/03/09 05:28:47;;;;;;;6.72;2.00;;;;;;;-1.94;42.60;102350.38;4959550;28;20496;-79
2022/03/09 05:31:12;;;;;;;2.25;1.30;;;;;;;-1.86;42.27;102354.09;4964644;28;20043;-79
2022/03/09 05:33:38;;;;;;;3.03;1.25;;;;;;;-1.82;41.59;102349.97;4973017;28;20042;-79
2022/03/09 05:36:04;;;;;;;3.60;1.88;;;;;;;-1.98;41.86;102353.66;4957633;28;20036;-80
2022/03/09 05:38:29;;;;;;;4.50;1.48;;;;;;;-2.07;42.41;102358.44;4974223;28;20500;-79
2022/03/09 05:40:54;;;;;;;2.75;1.77;;;;;;;-2.13;42.10;102348.00;4978918;28;20058;-79
2022/03/09 05:43:20;;;;;;;4.63;1.95;;;;;;;-2.11;42.40;102346.34;4989166;28;20400;-80
2022/03/09 05:45:46;;;;;;;9.88;2.67;;;;;;;-1.87;42.26;102351.47;4979078;28;20038;-78
2022/03/09 05:48:11;;;;;;;5.97;2.03;;;;;;;-1.96;41.81;102352.00;4957964;28;20046;-78
2022/03/09 05:50:37;;;;;;;3.03;1.50;;;;;;;-2.09;42.08;102362.63;4963558;28;20026;-79
2022/03/09 05:53:02;;;;;;;5.18;1.70;;;;;;;-2.11;42.19;102361.72;5003070;28;20386;-78
2022/03/09 05:55:28;;;;;;;3.55;1.02;;;;;;;-2.16;42.33;102366.66;4964908;28;20089;-79
2022/03/09 05:57:53;;;;;;;4.15;1.70;;;;;;;-2.23;42.78;102373.25;4979522;28;20042;-79
2022/03/09 06:00:19;;;;;;;6.60;2.35;;;;;;;-2.21;42.69;102368.19;4971534;28;20125;-79
2022/03/09 06:02:45;;;;;;;4.15;2.03;;;;;;;-2.21;42.75;102376.75;4960381;28;20057;-79
2022/03/09 06:05:11;;;;;;;4.45;2.05;;;;;;;-2.17;42.37;102382.88;4971827;28;20420;-80
2022/03/09 06:07:37;;;;;;;5.72;1.60;;;;;;;-2.15;42.28;102380.38;4979550;28;20045;-78
2022/03/09 06:10:03;;;;;;;4.07;1.42;;;;;;;-2.19;42.58;102383.63;4958138;28;20073;-79
2022/03/09 06:12:28;;;;;;;6.60;1.90;;;;;;;-2.29;42.82;102373.03;4962097;28;20050;-80
2022/03/09 06:14:55;;;;;;;2.35;1.00;;;;;;;-2.28;43.00;102377.34;4981632;28;20042;-79
2022/03/09 06:17:21;;;;;;;3.50;1.65;;;;;;;-2.17;43.33;102384.56;4977339;28;20066;-79
2022/03/09 06:19:46;;;;;;;7.20;1.73;;;;;;;-2.15;43.06;102385.50;4962104;28;20529;-79
2022/03/09 06:22:13;;;;;;;4.10;1.58;;;;;;;-2.10;43.07;102383.97;4982771;28;20450;-80
2022/03/09 06:24:39;;;;;;;5.65;2.15;;;;;;;-1.98;43.16;102383.53;4964042;28;20038;-76
2022/03/09 06:27:04;;;;;;;3.50;1.38;;;;;;;-1.84;42.89;102387.47;4977147;28;20041;-79
2022/03/09 06:29:30;;;;;;;5.38;1.77;;;;;;;-1.88;43.16;102389.03;4962795;28;20075;-80
2022/03/09 06:31:56;;;;;;;5.65;2.28;;;;;;;-1.83;42.89;102390.06;4957621;28;20460;-79
2022/03/09 06:34:21;;;;;;;6.20;2.03;;;;;;;-1.77;42.70;102380.88;4973240;28;20142;-80
2022/03/09 06:36:47;;;;;;;4.72;1.70;;;;;;;-1.73;42.27;102381.03;4956568;28;20023;-78
2022/03/09 06:39:14;;;;;;;9.07;2.20;;;;;;;-1.62;42.59;102383.97;4977424;28;20748;-77
2022/03/09 06:41:40;;;;;;;4.10;1.73;;;;;;;-1.47;42.33;102388.75;4962468;28;20443;-79
2022/03/09 06:44:06;;;;;;;2.67;1.25;;;;;;;-1.38;41.83;102400.19;4965131;28;20389;-80
2022/03/09 06:46:31;;;;;;;9.57;2.22;;;;;;;-1.28;41.81;102392.81;4961618;28;20049;-78
2022/03/09 06:48:57;;;;;;;4.97;2.22;;;;;;;-1.20;41.43;102399.06;4975474;28;20050;-79
2022/03/09 06:51:22;;;;;;;8.35;2.38;;;;;;;-0.92;41.16;102400.03;4965852;28;20039;-79
2022/03/09 06:53:48;;;;;;;8.40;2.63;;;;;;;0.12;40.15;102394.56;4987610;28;20065;-80
2022/03/09 06:56:15;;;;;;;6.35;1.77;;;;;;;2.29;36.91;102391.09;4970839;28;20041;-79
2022/03/09 06:58:40;;;;;;;5.45;1.85;;;;;;;4.82;32.88;102388.50;4976154;28;20507;-78
2022/03/09 07:01:06;;;;;;;4.22;2.05;;;;;;;6.62;28.72;102391.97;4969425;28;20026;-79
2022/03/09 07:03:31;;;;;;;5.90;3.17;;;;;;;8.01;26.04;102389.13;4963084;28;20523;-80
2022/03/09 07:05:56;;;;;;;7.95;2.00;;;;;;;9.83;22.73;102389.31;4964621;28;20050;-80
2022/03/09 07:08:22;;;;;;;7.15;2.13;;;;;;;9.93;21.78;102392.69;4966253;28;20134;-79
2022/03/09 07:10:47;;;;;;;3.42;1.88;;;;;;;9.98;21.45;102396.09;4976882;28;20129;-82
2022/03/09 07:13:13;;;;;;;7.00;1.90;;;;;;;10.34;20.93;102388.63;4962203;28;20086;-82
2022/03/09 07:15:38;;;;;;;13.18;2.40;;;;;;;10.95;20.14;102382.44;4977770;28;20423;-80
2022/03/09 07:18:04;;;;;;;5.13;2.15;;;;;;;11.13;20.44;102381.25;4977301;28;20058;-80
2022/03/09 07:20:29;;;;;;;4.50;2.35;;;;;;;11.12;20.46;102386.50;4970672;28;20677;-80
2022/03/09 07:22:55;;;;;;;4.93;1.70;;;;;;;11.59;19.91;102389.94;4966831;28;20523;-79
2022/03/09 07:25:21;;;;;;;5.22;1.92;;;;;;;11.60;19.48;102389.94;4984216;28;20026;-78
2022/03/09 07:27:47;;;;;;;5.15;1.67;;;;;;;12.42;19.27;102390.78;4975304;28;20657;-80
2022/03/09 07:30:13;;;;;;;4.07;2.40;;;;;;;12.68;18.80;102393.63;4969891;28;20099;-81
2022/03/09 07:32:40;;;;;;;5.80;2.70;;;;;;;12.84;18.32;102406.41;4979217;28;20042;-82
2022/03/09 07:35:07;;;;;;;3.00;2.13;;;;;;;12.45;18.81;102409.09;4980168;28;20447;-80
2022/03/09 07:37:32;;;;;;;3.83;1.90;;;;;;;12.29;19.42;102409.44;4977815;28;20042;-82
2022/03/09 07:39:58;;;;;;;3.63;2.28;;;;;;;12.89;18.22;102399.28;4966242;28;20100;-78
2022/03/09 07:42:24;;;;;;;3.45;2.40;;;;;;;13.42;18.51;102402.25;4977889;28;20034;-82
2022/03/09 07:44:49;;;;;;;4.10;1.95;;;;;;;13.73;17.76;102401.41;4997340;28;20097;-81
2022/03/09 07:47:15;;;;;;;3.42;2.08;;;;;;;13.90;17.45;102403.56;4982028;28;20048;-82
2022/03/09 07:49:41;;;;;;;4.18;2.38;;;;;;;14.25;16.85;102399.81;4983021;28;20042;-80
2022/03/09 07:52:07;;;;;;;7.05;2.33;;;;;;;15.40;16.40;102397.78;4979857;28;20042;-78
2022/03/09 07:54:33;;;;;;;5.40;2.80;;;;;;;15.21;16.50;102409.84;4994013;28;20872;-79
2022/03/09 07:56:59;;;;;;;5.10;2.42;;;;;;;14.56;16.69;102410.25;4975774;28;20030;-81
2022/03/09 07:59:27;;;;;;;4.95;2.20;;;;;;;14.36;16.89;102402.97;4964285;28;20054;-81
2022/03/09 08:01:53;;;;;;;5.03;2.60;;;;;;;14.46;16.67;102406.22;4967858;28;20111;-82
2022/03/09 08:04:21;;;;;;;3.22;2.47;;;;;;;14.34;16.62;102404.81;4960169;28;20034;-78
2022/03/09 08:06:51;;;;;;;3.55;2.60;;;;;;;14.95;16.46;102406.38;4979858;28;20034;-80
2022/03/09 08:09:17;;;;;;;5.05;2.90;;;;;;;15.63;15.95;102404.84;4994339;28;20116;-81
2022/03/09 08:11:43;;;;;;;4.07;2.45;;;;;;;15.85;15.63;102414.56;4956674;28;20065;-80
2022/03/09 08:14:10;;;;;;;3.42;2.20;;;;;;;16.72;15.13;102408.47;4975967;28;20053;-81
2022/03/09 08:16:36;;;;;;;3.75;2.28;;;;;;;16.04;15.08;102414.75;4975242;28;20023;-76
2022/03/09 08:19:03;;;;;;;5.30;2.50;;;;;;;15.86;15.58;102405.75;4980374;28;20450;-80
2022/03/09 08:21:29;;;;;;;4.47;2.60;;;;;;;15.82;15.60;102402.38;4990034;28;20042;-80
2022/03/09 08:23:55;;;;;;;5.25;2.60;;;;;;;16.30;15.00;102406.66;4966022;28;20377;-83
2022/03/09 08:26:21;;;;;;;3.83;2.47;;;;;;;16.49;14.98;102405.91;4980820;28;20046;-81
2022/03/09 08:28:46;;;;;;;3.38;1.88;;;;;;;16.46;14.91;102406.91;4980932;28;20038;-83
2022/03/09 08:31:12;;;;;;;4.72;2.72;;;;;;;16.38;15.13;102414.28;4967302;28;20076;-80
2022/03/09 08:33:38;;;;;;;5.63;3.70;;;;;;;16.09;15.06;102410.19;4966349;28;20710;-75
2022/03/09 08:36:04;;;;;;;4.50;2.83;;;;;;;16.02;15.70;102409.56;4984355;28;20030;-81
2022/03/09 08:38:30;;;;;;;6.80;2.25;;;;;;;15.87;15.71;102405.69;4978955;28;20042;-80
2022/03/09 08:40:56;;;;;;;6.18;3.00;;;;;;;15.90;15.41;102402.91;4970426;28;20091;-81
2022/03/09 08:43:22;;;;;;;6.55;2.90;;;;;;;15.83;15.27;102401.44;4978228;28;20038;-78
2022/03/09 08:45:47;;;;;;;3.97;2.72;;;;;;;15.45;16.24;102398.47;4967932;28;20019;-80
2022/03/09 08:48:13;;;;;;;7.82;2.75;;;;;;;14.76;16.87;102400.84;4967353;28;20046;-81
2022/03/09 08:50:39;;;;;;;3.83;2.80;;;;;;;14.77;16.87;102402.59;4981677;28;20038;-79
2022/03/09 08:53:05;;;;;;;5.80;3.35;;;;;;;14.69;17.06;102400.19;4971810;28;20092;-77
2022/03/09 08:55:31;;;;;;;5.22;3.00;;;;;;;14.73;17.26;102408.84;4976841;28;20270;-79
2022/03/09 08:57:57;;;;;;;7.38;2.50;;;;;;;14.71;17.37;102414.16;4981303;28;20137;-80
2022/03/09 09:00:24;;;;;;;6.15;2.72;;;;;;;14.13;17.31;102405.47;4975936;28;20040;-78
2022/03/09 09:02:49;;;;;;;7.55;2.78;;;;;;;14.27;17.82;102402.41;4957258;28;20042;-79
2022/03/09 09:05:15;;;;;;;5.47;2.05;;;;;;;13.96;18.00;102402.50;4962317;28;20046;-77
2022/03/09 09:07:41;;;;;;;4.47;3.15;;;;;;;13.25;18.07;102401.84;4992975;28;20030;-79
2022/03/09 09:10:07;;;;;;;5.50;2.85;;;;;;;11.77;19.70;102402.69;4965010;28;20087;-77
2022/03/09 09:12:33;;;;;;;9.52;2.67;;;;;;;11.24;21.08;102408.06;4964166;28;20102;-79
2022/03/09 09:14:59;;;;;;;5.90;2.40;;;;;;;11.23;20.63;102405.47;4963573;28;20343;-81
2022/03/09 09:17:25;;;;;;;6.45;2.72;;;;;;;11.12;20.72;102407.44;4964512;28;20083;-80
2022/03/09 09:19:51;;;;;;;5.68;2.30;;;;;;;10.75;20.86;102414.13;4964574;28;20037;-81
2022/03/09 09:22:17;;;;;;;5.20;2.83;;;;;;;10.72;20.86;102416.78;4974089;28;20045;-78
2022/03/09 09:24:43;;;;;;;5.13;2.25;;;;;;;10.81;21.05;102416.66;4977429;28;20559;-79
2022/03/09 09:27:09;;;;;;;7.70;3.15;;;;;;;10.73;21.09;102425.50;4963676;28;20045;-79
2022/03/09 09:29:35;;;;;;;6.93;3.10;;;;;;;11.15;20.59;102415.22;4980771;28;20535;-80
2022/03/09 09:32:01;;;;;;;5.28;3.00;;;;;;;11.13;20.35;102420.50;4979883;28;20035;-79
2022/03/09 09:34:28;;;;;;;12.63;3.17;;;;;;;11.25;20.66;102411.56;4967785;28;20082;-79
2022/03/09 09:36:54;;;;;;;5.80;2.95;;;;;;;11.56;19.98;102414.44;4976610;28;20145;-81
2022/03/09 09:39:21;;;;;;;5.43;3.25;;;;;;;11.63;19.31;102420.44;4958929;28;20039;-81
2022/03/09 09:41:51;;;;;;;4.20;2.60;;;;;;;11.54;19.17;102420.63;4966754;28;20042;-81
2022/03/09 09:44:17;;;;;;;3.33;2.33;;;;;;;11.53;19.49;102418.88;4979767;28;20053;-80
2022/03/09 09:46:43;;;;;;;4.50;2.63;;;;;;;11.71;19.53;102415.91;4993364;28;20022;-81
2022/03/09 09:49:11;;;;;;;6.43;2.75;;;;;;;12.27;19.71;102424.34;4976480;28;20043;-79
2022/03/09 09:51:40;;;;;;;6.22;2.83;;;;;;;12.34;19.67;102425.06;4974607;28;20037;-80
2022/03/09 09:54:05;;;;;;;6.32;2.55;;;;;;;12.89;19.13;102412.41;4963941;28;20042;-78
2022/03/09 09:56:35;;;;;;;3.83;2.42;;;;;;;12.88;18.86;102415.94;4962718;28;20038;-79
2022/03/09 09:59:02;;;;;;;4.88;2.45;;;;;;;13.14;18.45;102406.50;4990920;28;20168;-77
2022/03/09 10:01:28;;;;;;;6.30;2.65;;;;;;;12.74;17.93;102412.81;4975000;28;20471;-80
2022/03/09 10:03:54;;;;;;;3.42;2.15;;;;;;;12.10;18.33;102413.34;4975265;28;20137;-79
2022/03/09 10:06:19;;;;;;;6.20;2.63;;;;;;;12.25;18.25;102409.53;4959193;28;20125;-78
2022/03/09 10:09:00;;;;;;;7.13;2.38;;;;;;;11.93;18.15;102407.63;4979009;28;20034;-79
2022/03/09 10:11:43;;;;;;;5.03;2.55;;;;;;;11.20;18.65;102413.41;4958715;28;20093;-79
2022/03/09 10:14:09;;;;;;;12.35;3.58;;;;;;;11.49;18.60;102398.91;4979525;28;20046;-77
2022/03/09 10:16:34;;;;;;;6.18;2.85;;;;;;;12.17;17.67;102407.06;4959692;28;20065;-80
2022/03/09 10:19:01;;;;;;;5.57;2.90;;;;;;;11.69;18.29;102407.22;4970321;28;20044;-81
2022/03/09 10:21:35;;;;;;;5.50;2.67;;;;;;;11.73;18.64;102406.25;4976516;28;20066;-77
2022/03/09 10:24:03;;;;;;;7.68;2.63;;;;;;;12.28;18.21;102397.22;4962264;28;20108;-79
2022/03/09 10:26:35;;;;;;;5.05;3.08;;;;;;;12.08;18.07;102396.81;4958980;28;20038;-79
2022/03/09 10:29:07;;;;;;;;;;;;;;;12.31;17.26;102392.78;4956666;28;20062;-81
2022/03/09 10:31:41;;;;;;;6.10;2.50;;;;;;;13.28;16.85;102384.25;4971915;28;19918;-79
2022/03/09 10:34:12;;;;;;;4.38;2.88;;;;;;;12.78;17.63;102389.06;4979567;28;20126;-77
2022/03/09 10:36:53;;;;;;;5.78;3.13;;;;;;;11.37;19.00;102397.34;4956320;28;20034;-80
2022/03/09 10:39:19;;;;;;;6.15;3.20;;;;;;;12.87;17.67;102399.34;4957897;28;20094;-80
2022/03/09 10:41:45;;;;;;;7.90;3.30;;;;;;;13.24;16.85;102397.50;4974476;28;20129;-79
2022/03/09 10:44:11;;;;;;;6.35;2.92;;;;;;;12.38;17.46;102399.63;4977020;28;20133;-80
2022/03/09 10:46:46;;;;;;;4.90;2.70;;;;;;;13.79;17.28;102395.97;4976859;28;20041;-81
2022/03/09 10:49:13;;;;;;;7.20;3.15;;;;;;;13.21;16.17;102395.81;4962636;28;20066;-79
2022/03/09 10:51:46;;;;;;;5.80;2.22;;;;;;;13.29;16.77;102406.09;4976735;28;20045;-78
2022/03/09 10:54:19;;;;;;;6.00;2.92;;;;;;;13.53;16.66;102399.31;4957531;28;20488;-80
2022/03/09 10:56:45;;;;;;;5.70;3.30;;;;;;;13.66;16.61;102399.88;4956778;28;20402;-78
2022/03/09 10:59:19;;;;;;;5.63;2.67;;;;;;;13.32;16.17;102400.78;4970863;28;20409;-78
2022/03/09 11:02:04;;;;;;;5.57;2.58;;;;;;;12.72;16.78;102398.88;4966333;28;20044;-80
2022/03/09 11:04:30;;;;;;;5.25;2.85;;;;;;;12.19;16.72;102410.53;4962728;28;20167;-80
2022/03/09 11:06:57;;;;;;;4.93;2.50;;;;;;;12.70;16.76;102397.13;4975533;28;20066;-80
2022/03/09 11:09:22;;;;;;;7.25;3.60;;;;;;;12.91;16.99;102397.47;4963490;28;20062;-79
2022/03/09 11:11:49;;;;;;;4.07;2.83;;;;;;;12.98;16.39;102395.56;4970225;28;20065;-80
2022/03/09 11:14:17;;;;;;;6.32;2.83;;;;;;;13.31;16.76;102389.41;4976971;28;20034;-79
2022/03/09 11:16:44;;;;;;;3.58;2.53;;;;;;;13.26;16.44;102387.81;4964602;28;20030;-81
2022/03/09 11:19:10;;;;;;;4.80;3.00;;;;;;;13.02;16.71;102377.06;4970580;28;20047;-77
2022/03/09 11:21:37;;;;;;;7.85;2.90;;;;;;;12.33;17.01;102388.38;4979811;28;20116;-79
2022/03/09 11:24:08;;;;;;;7.53;3.05;;;;;;;11.74;17.35;102373.06;4958296;28;20046;-78